Time;durP1;ratioP1;P1;durP2;ratioP2;P2;SDS_P1;SDS_P2;PMS_P1;PMS_P2;Temp;Humidity;BMP_temperature;BMP_pressure;BME280_temperature;BME280_humidity;BME280_pressure;Samples;Min_cycle;Max_cycle;Signal;HPM_P1;HPM_P2
2021/03/27 00:00:05;;;;;;;;;;;19.40;53.80;;;;;;5017036;28;1085;-68
2021/03/27 00:02:32;;;;;;;;;;;19.40;53.90;;;;;;5016815;28;1355;-68
2021/03/27 00:05:24;;;;;;;;;;;19.40;53.90;;;;;;5016876;28;1404;-67
2021/03/27 00:07:53;;;;;;;;;;;19.40;53.90;;;;;;5028841;28;1601;-68
2021/03/27 00:10:23;;;;;;;;;;;19.40;53.90;;;;;;5016851;28;1440;-67
2021/03/27 00:12:53;;;;;;;;;;;19.40;53.90;;;;;;5017008;28;1347;-68
2021/03/27 00:15:19;;;;;;;;;;;19.40;54.50;;;;;;5016617;28;1069;-68
2021/03/27 00:17:48;;;;;;;;;;;19.40;53.90;;;;;;5033745;28;1914;-67
2021/03/27 00:20:16;;;;;;;;;;;19.40;54.00;;;;;;5016664;28;1402;-68
2021/03/27 00:22:43;;;;;;;;;;;19.30;53.90;;;;;;5016086;28;1459;-68
2021/03/27 00:25:28;;;;;;;;;;;19.30;54.00;;;;;;5033041;28;1351;-67
2021/03/27 00:28:06;;;;;;;;;;;19.30;54.00;;;;;;5026521;28;1351;-68
2021/03/27 00:30:33;;;;;;;;;;;19.30;54.00;;;;;;5034041;28;1065;-68
2021/03/27 00:32:58;;;;;;;;;;;19.30;54.00;;;;;;5026731;28;1139;-67
2021/03/27 00:35:25;;;;;;;;;;;19.30;54.10;;;;;;5016172;28;1683;-68
2021/03/27 00:37:50;;;;;;;;;;;19.30;54.10;;;;;;4995984;28;1906;-68
2021/03/27 00:40:17;;;;;;;;;;;19.30;54.10;;;;;;5027032;28;1077;-68
2021/03/27 00:42:48;;;;;;;;;;;19.30;54.10;;;;;;5019245;28;1293;-68
2021/03/27 00:45:14;;;;;;;;;;;19.30;54.10;;;;;;5002680;28;1336;-68
2021/03/27 00:47:42;;;;;;;;;;;19.30;54.20;;;;;;5015388;28;1240;-68
2021/03/27 00:50:07;;;;;;;;;;;19.30;54.10;;;;;;5016155;28;1404;-68
2021/03/27 00:52:46;;;;;;;;;;;19.30;54.20;;;;;;5008629;28;1181;-67
2021/03/27 00:55:13;;;;;;;;;;;19.30;54.20;;;;;;5011736;28;1127;-68
2021/03/27 00:57:40;;;;;;;;;;;19.30;54.20;;;;;;5015301;28;1906;-68
2021/03/27 01:00:05;;;;;;;;;;;19.30;54.20;;;;;;5015593;28;1357;-67
2021/03/27 01:02:30;;;;;;;;;;;19.30;54.20;;;;;;5006633;28;1336;-68
2021/03/27 01:04:56;;;;;;;;;;;19.30;54.20;;;;;;5011795;28;1528;-68
2021/03/27 01:07:22;;;;;;;;;;;19.30;54.30;;;;;;5015158;28;1225;-67
2021/03/27 01:09:56;;;;;;;;;;;19.30;54.30;;;;;;5015770;28;1342;-67
2021/03/27 01:12:22;;;;;;;;;;;19.30;54.30;;;;;;5015594;28;1089;-68
2021/03/27 01:14:51;;;;;;;;;;;19.20;54.30;;;;;;5033081;28;1313;-68
2021/03/27 01:17:17;;;;;;;;;;;19.20;54.30;;;;;;5015154;28;1906;-68
2021/03/27 01:19:45;;;;;;;;;;;19.20;54.30;;;;;;5015444;28;1069;-68
2021/03/27 01:22:11;;;;;;;;;;;19.20;54.30;;;;;;4999057;28;1094;-68
2021/03/27 01:24:36;;;;;;;;;;;19.20;54.40;;;;;;5011980;28;1167;-67
2021/03/27 01:27:07;;;;;;;;;;;19.20;54.30;;;;;;5002524;28;1286;-68
2021/03/27 01:29:41;;;;;;;;;;;19.20;54.40;;;;;;5012087;28;1278;-68
2021/03/27 01:32:27;;;;;;;;;;;19.20;54.40;;;;;;5025690;28;1053;-68
2021/03/27 01:35:12;;;;;;;;;;;19.20;54.40;;;;;;5014403;28;1239;-68
2021/03/27 01:37:41;;;;;;;;;;;19.20;54.40;;;;;;5030809;28;1906;-68
2021/03/27 01:40:11;;;;;;;;;;;19.20;54.40;;;;;;5033009;28;1353;-67
2021/03/27 01:42:55;;;;;;;;;;;19.20;54.40;;;;;;5026233;28;1139;-68
2021/03/27 01:45:26;;;;;;;;;;;19.20;54.40;;;;;;5027530;28;1328;-68
2021/03/27 01:48:01;;;;;;;;;;;19.20;54.40;;;;;;5032486;28;842;-68
2021/03/27 01:50:29;;;;;;;;;;;19.20;54.50;;;;;;5032708;28;1127;-69
2021/03/27 01:53:00;;;;;;;;;;;19.20;54.50;;;;;;5032885;28;1375;-69
2021/03/27 01:55:30;;;;;;;;;;;19.20;54.50;;;;;;5015159;28;1392;-68
2021/03/27 01:58:14;;;;;;;;;;;19.20;54.50;;;;;;5014920;28;1926;-68
2021/03/27 02:00:58;;;;;;;;;;;19.20;54.50;;;;;;5032662;28;1490;-68
2021/03/27 02:03:24;;;;;;;;;;;19.20;54.50;;;;;;5032563;28;1333;-68
2021/03/27 02:05:53;;;;;;;;;;;19.10;54.50;;;;;;5032514;28;1344;-69
2021/03/27 02:08:19;;;;;;;;;;;19.20;54.60;;;;;;5014593;28;1269;-69
2021/03/27 02:11:05;;;;;;;;;;;19.20;54.60;;;;;;5032526;28;1076;-69
2021/03/27 02:13:34;;;;;;;;;;;19.10;54.50;;;;;;5015199;28;1393;-68
2021/03/27 02:16:08;;;;;;;;;;;19.20;54.60;;;;;;4995334;28;1473;-68
2021/03/27 02:18:42;;;;;;;;;;;19.10;54.60;;;;;;5031645;28;1935;-68
2021/03/27 02:21:27;;;;;;;;;;;19.10;54.60;;;;;;5035053;28;1450;-68
2021/03/27 02:23:58;;;;;;;;;;;19.20;54.60;;;;;;5028117;28;1046;-68
2021/03/27 02:26:33;;;;;;;;;;;19.10;54.60;;;;;;5018766;28;1349;-69
2021/03/27 02:29:27;;;;;;;;;;;19.10;54.60;;;;;;5035996;28;1136;-68
2021/03/27 02:31:55;;;;;;;;;;;19.10;54.60;;;;;;5020917;28;1061;-68
2021/03/27 02:34:36;;;;;;;;;;;19.10;54.60;;;;;;5015229;28;1446;-68
2021/03/27 02:37:02;;;;;;;;;;;19.10;54.70;;;;;;5007759;28;1985;-68
2021/03/27 02:39:36;;;;;;;;;;;19.10;54.70;;;;;;5018294;28;1105;-68
2021/03/27 02:42:21;;;;;;;;;;;19.10;54.70;;;;;;5018306;28;1337;-68
2021/03/27 02:44:52;;;;;;;;;;;19.10;54.70;;;;;;5035321;28;1123;-68
2021/03/27 02:47:17;;;;;;;;;;;19.10;54.70;;;;;;5017969;28;1457;-68
2021/03/27 02:49:46;;;;;;;;;;;19.10;54.70;;;;;;5035830;28;1143;-68
2021/03/27 02:52:11;;;;;;;;;;;19.10;54.70;;;;;;5035900;28;1176;-68
2021/03/27 02:54:54;;;;;;;;;;;19.10;54.70;;;;;;5007560;28;1089;-67
2021/03/27 02:57:31;;;;;;;;;;;19.10;54.70;;;;;;5017139;28;1895;-68
2021/03/27 02:59:59;;;;;;;;;;;19.10;54.80;;;;;;5018087;28;1673;-69
2021/03/27 03:02:43;;;;;;;;;;;19.10;54.80;;;;;;5018105;28;1259;-69
2021/03/27 03:05:10;;;;;;;;;;;19.10;54.80;;;;;;5035326;28;1430;-69
2021/03/27 03:07:41;;;;;;;;;;;19.10;54.80;;;;;;5017437;28;1371;-68
2021/03/27 03:10:06;;;;;;;;;;;19.10;54.80;;;;;;5017988;28;1219;-69
2021/03/27 03:12:50;;;;;;;;;;;19.10;54.80;;;;;;5035530;28;1428;-69
2021/03/27 03:15:34;;;;;;;;;;;19.10;54.80;;;;;;5017799;28;1432;-68
2021/03/27 03:18:18;;;;;;;;;;;19.10;54.80;;;;;;5034880;28;1902;-69
2021/03/27 03:20:45;;;;;;;;;;;19.10;54.80;;;;;;5006243;28;1278;-68
2021/03/27 03:23:12;;;;;;;;;;;19.10;54.80;;;;;;5016043;28;1432;-68
2021/03/27 03:25:48;;;;;;;;;;;19.10;54.90;;;;;;5017578;28;1336;-67
2021/03/27 03:28:49;;;;;;;;;;;19.10;54.90;;;;;;5014131;28;1073;-68
2021/03/27 03:31:20;;;;;;;;;;;19.00;54.80;;;;;;4973452;28;1185;-69
2021/03/27 03:33:58;;;;;;;;;;;19.10;54.90;;;;;;5023806;28;1077;-69
2021/03/27 03:36:33;;;;;;;;;;;19.00;54.80;;;;;;5034873;28;1564;-69
2021/03/27 03:39:10;;;;;;;;;;;19.00;54.90;;;;;;5033643;28;1092;-69
2021/03/27 03:41:41;;;;;;;;;;;19.00;54.90;;;;;;5035067;28;1063;-69
2021/03/27 03:44:09;;;;;;;;;;;19.00;54.90;;;;;;5035022;28;1313;-69
2021/03/27 03:46:53;;;;;;;;;;;19.00;54.90;;;;;;5017015;28;1437;-69
2021/03/27 03:49:32;;;;;;;;;;;19.00;54.90;;;;;;5027715;28;1064;-68
2021/03/27 03:52:07;;;;;;;;;;;19.00;54.90;;;;;;5028819;28;1296;-69
2021/03/27 03:54:52;;;;;;;;;;;19.00;54.80;;;;;;5011335;28;1494;-66
2021/03/27 03:57:26;;;;;;;;;;;19.00;54.70;;;;;;5030320;28;2134;-68
2021/03/27 04:00:10;;;;;;;;;;;19.10;54.70;;;;;;5033528;28;1305;-69
2021/03/27 04:02:35;;;;;;;;;;;19.10;54.60;;;;;;5034306;28;968;-68
2021/03/27 04:05:11;;;;;;;;;;;19.20;54.50;;;;;;5033353;28;1307;-68
2021/03/27 04:07:40;;;;;;;;;;;19.30;54.30;;;;;;5032272;28;1277;-68
2021/03/27 04:10:10;;;;;;;;;;;19.50;54.20;;;;;;5032956;28;1328;-68
2021/03/27 04:12:48;;;;;;;;;;;19.60;54.00;;;;;;5033108;28;2115;-68
2021/03/27 04:15:32;;;;;;;;;;;19.70;53.60;;;;;;5034285;28;1419;-66
2021/03/27 04:17:59;;;;;;;;;;;19.80;53.40;;;;;;5033518;28;1973;-67
2021/03/27 04:20:43;;;;;;;;;;;20.00;53.10;;;;;;5032865;28;1314;-66
2021/03/27 04:23:16;;;;;;;;;;;20.10;52.80;;;;;;5028219;28;1437;-67
2021/03/27 04:25:43;;;;;;;;;;;20.30;52.60;;;;;;5009289;28;1236;-67
2021/03/27 04:28:19;;;;;;;;;;;20.40;52.40;;;;;;4999309;28;1362;-65
2021/03/27 04:30:59;;;;;;;;;;;20.40;52.10;;;;;;5033602;28;1254;-65
2021/03/27 04:33:39;;;;;;;;;;;20.60;52.00;;;;;;5033804;28;1223;-66
2021/03/27 04:36:18;;;;;;;;;;;20.60;51.80;;;;;;5032420;28;1395;-67
2021/03/27 04:38:46;;;;;;;;;;;20.70;51.60;;;;;;5015373;28;1899;-66
2021/03/27 04:41:27;;;;;;;;;;;20.80;51.50;;;;;;5032476;28;1225;-67
2021/03/27 04:44:00;;;;;;;;;;;20.80;51.40;;;;;;5033006;28;1321;-66
2021/03/27 04:46:28;;;;;;;;;;;20.90;51.20;;;;;;5032308;28;1325;-67
2021/03/27 04:49:07;;;;;;;;;;;20.90;51.10;;;;;;5032388;28;1364;-67
2021/03/27 04:51:52;;;;;;;;;;;20.90;51.00;;;;;;5032391;28;1326;-66
2021/03/27 04:54:20;;;;;;;;;;;21.00;51.00;;;;;;5032251;28;1223;-67
2021/03/27 04:56:54;;;;;;;;;;;21.00;50.90;;;;;;5033356;28;1910;-67
2021/03/27 04:59:22;;;;;;;;;;;21.10;50.90;;;;;;5033037;28;1103;-67
2021/03/27 05:01:55;;;;;;;;;;;21.10;50.80;;;;;;5040002;28;1367;-67
2021/03/27 05:04:26;;;;;;;;;;;21.10;50.80;;;;;;5032058;28;1276;-66
2021/03/27 05:07:00;;;;;;;;;;;21.20;50.80;;;;;;5033163;28;1270;-66
2021/03/27 05:09:28;;;;;;;;;;;21.20;50.70;;;;;;5032976;28;1351;-66
2021/03/27 05:12:03;;;;;;;;;;;21.20;50.70;;;;;;5032113;28;1221;-66
2021/03/27 05:14:45;;;;;;;;;;;21.20;50.60;;;;;;5031816;28;1343;-67
2021/03/27 05:17:30;;;;;;;;;;;21.20;50.60;;;;;;5031485;28;1978;-66
2021/03/27 05:20:04;;;;;;;;;;;21.30;50.60;;;;;;5031794;28;1462;-67
2021/03/27 05:22:32;;;;;;;;;;;21.30;50.50;;;;;;5031529;28;1255;-66
2021/03/27 05:25:14;;;;;;;;;;;21.30;50.50;;;;;;5031532;28;1076;-66
2021/03/27 05:27:42;;;;;;;;;;;21.30;50.50;;;;;;5031261;28;1282;-66
2021/03/27 05:30:14;;;;;;;;;;;21.30;50.50;;;;;;5033020;28;1263;-66
2021/03/27 05:32:47;;;;;;;;;;;21.40;50.50;;;;;;5033048;28;1289;-66
2021/03/27 05:35:15;;;;;;;;;;;21.40;50.50;;;;;;5011706;28;990;-66
2021/03/27 05:37:54;;;;;;;;;;;21.40;50.50;;;;;;5013196;28;1898;-66
2021/03/27 05:40:20;;;;;;;;;;;21.40;50.50;;;;;;5015017;28;1087;-67
2021/03/27 05:42:51;;;;;;;;;;;21.40;50.50;;;;;;5032741;28;1443;-66
2021/03/27 05:45:32;;;;;;;;;;;21.40;50.50;;;;;;5015021;28;1303;-66
2021/03/27 05:48:07;;;;;;;;;;;21.40;50.60;;;;;;5032423;28;1267;-67
2021/03/27 05:50:45;;;;;;;;;;;21.40;50.60;;;;;;5015107;28;1145;-66
2021/03/27 05:53:20;;;;;;;;;;;21.40;50.60;;;;;;5032729;28;1061;-66
2021/03/27 05:56:04;;;;;;;;;;;21.40;50.60;;;;;;5036477;28;1404;-67
2021/03/27 05:58:35;;;;;;;;;;;21.40;50.70;;;;;;5005659;28;1902;-65
2021/03/27 06:01:19;;;;;;;;;;;21.40;50.70;;;;;;5036750;28;1331;-68
2021/03/27 06:03:50;;;;;;;;;;;21.30;50.70;;;;;;5036665;28;1376;-64
2021/03/27 06:06:30;;;;;;;;;;;21.30;50.70;;;;;;5036448;28;1223;-67
2021/03/27 06:09:00;;;;;;;;;;;21.30;50.80;;;;;;5035013;28;1457;-67
2021/03/27 06:11:26;;;;;;;;;;;21.30;50.90;;;;;;5036809;28;1427;-66
2021/03/27 06:14:07;;;;;;;;;;;21.20;50.90;;;;;;5035331;28;1304;-67
2021/03/27 06:16:33;;;;;;;;;;;21.20;50.90;;;;;;5034796;28;2279;-65
2021/03/27 06:19:17;;;;;;;;;;;21.20;51.00;;;;;;5036235;28;1275;-67
2021/03/27 06:22:21;;;;;;;;;;;21.20;51.00;;;;;;5035725;28;1345;-68
2021/03/27 06:24:49;;;;;;;;;;;21.20;51.10;;;;;;4936351;29;1809;-68
2021/03/27 06:27:33;;;;;;;;;;;21.10;51.10;;;;;;4940849;28;1300;-68
2021/03/27 06:30:18;;;;;;;;;;;21.10;51.20;;;;;;4996214;28;1319;-69
2021/03/27 06:33:02;;;;;;;;;;;21.10;51.30;;;;;;5034370;28;1333;-68
2021/03/27 06:35:46;;;;;;;;;;;21.10;51.30;;;;;;5035738;28;1320;-69
2021/03/27 06:38:17;;;;;;;;;;;21.00;51.40;;;;;;5025157;28;1955;-68
2021/03/27 06:40:52;;;;;;;;;;;21.00;51.50;;;;;;5036154;28;1285;-69
2021/03/27 06:43:22;;;;;;;;;;;21.00;51.50;;;;;;5027451;28;1278;-69
2021/03/27 06:46:10;;;;;;;;;;;21.00;51.60;;;;;;5017972;28;1313;-68
2021/03/27 06:48:55;;;;;;;;;;;20.90;51.60;;;;;;5018043;28;1279;-69
2021/03/27 06:51:39;;;;;;;;;;;20.90;51.60;;;;;;5035836;28;1341;-69
2021/03/27 06:54:12;;;;;;;;;;;20.90;51.70;;;;;;5035990;28;1492;-69
2021/03/27 06:56:39;;;;;;;;;;;20.90;51.80;;;;;;5017780;28;1910;-68
2021/03/27 06:59:15;;;;;;;;;;;20.90;51.80;;;;;;5017841;28;1077;-68
2021/03/27 07:02:00;;;;;;;;;;;20.80;51.90;;;;;;5018364;28;1278;-69
2021/03/27 07:04:28;;;;;;;;;;;20.80;49.80;;;;;;5035774;28;1351;-68
2021/03/27 07:09:24;;;;;;;;;;;20.60;48.50;;;;;;5046076;28;1357;-64
2021/03/27 07:11:52;;;;;;;;;;;20.60;49.00;;;;;;5054364;28;1280;-64
2021/03/27 07:14:37;;;;;;;;;;;20.50;49.30;;;;;;5055513;28;1375;-65
2021/03/27 07:17:17;;;;;;;;;;;20.60;49.60;;;;;;5054972;28;1988;-66
2021/03/27 07:19:55;;;;;;;;;;;20.50;49.80;;;;;;5055253;28;1072;-65
2021/03/27 07:22:26;;;;;;;;;;;20.50;50.00;;;;;;5055311;28;1063;-65
2021/03/27 07:25:24;;;;;;;;;;;20.50;50.20;;;;;;5055229;28;1239;-65
2021/03/27 07:28:08;;;;;;;;;;;20.50;50.30;;;;;;5026387;28;1321;-66
2021/03/27 07:30:35;;;;;;;;;;;20.50;50.50;;;;;;5055019;28;1278;-66
2021/03/27 07:33:05;;;;;;;;;;;20.50;50.70;;;;;;5051174;28;1103;-66
2021/03/27 07:35:38;;;;;;;;;;;20.50;50.80;;;;;;5053811;28;1367;-66
2021/03/27 07:38:22;;;;;;;;;;;20.50;50.90;;;;;;5053173;28;1894;-69
2021/03/27 07:41:06;;;;;;;;;;;20.50;51.00;;;;;;5054974;28;1338;-65
2021/03/27 07:43:34;;;;;;;;;;;20.40;51.10;;;;;;5055084;28;1383;-68
2021/03/27 07:46:17;;;;;;;;;;;20.40;51.20;;;;;;5054587;28;1436;-67
2021/03/27 07:48:45;;;;;;;;;;;20.40;51.30;;;;;;5053259;28;1356;-65
2021/03/27 07:51:28;;;;;;;;;;;20.50;51.40;;;;;;5053511;28;1296;-66
2021/03/27 07:54:02;;;;;;;;;;;20.40;51.40;;;;;;5036829;28;1274;-65
2021/03/27 07:56:31;;;;;;;;;;;20.40;51.60;;;;;;5053292;28;1412;-67
2021/03/27 07:58:59;;;;;;;;;;;20.40;51.70;;;;;;5054239;28;1898;-64
2021/03/27 08:01:24;;;;;;;;;;;20.40;51.70;;;;;;5052318;28;2091;-67
2021/03/27 08:03:57;;;;;;;;;;;20.30;51.80;;;;;;5050403;28;1806;-64
2021/03/27 08:06:41;;;;;;;;;;;20.40;51.80;;;;;;5052867;28;1350;-66
2021/03/27 08:09:12;;;;;;;;;;;20.30;51.80;;;;;;5059190;28;991;-64
2021/03/27 08:11:56;;;;;;;;;;;20.30;51.90;;;;;;5055976;28;1107;-63
2021/03/27 08:14:27;;;;;;;;;;;20.30;51.90;;;;;;5054329;28;1277;-65
2021/03/27 08:17:11;;;;;;;;;;;20.30;52.00;;;;;;5052141;28;1971;-63
2021/03/27 08:19:37;;;;;;;;;;;20.30;52.90;;;;;;5044709;28;1204;-64
2021/03/27 08:22:09;;;;;;;;;;;20.30;52.90;;;;;;5043549;28;1181;-64
2021/03/27 08:24:39;;;;;;;;;;;20.30;53.20;;;;;;5062021;28;1180;-64
2021/03/27 08:27:23;;;;;;;;;;;20.30;53.60;;;;;;5045477;28;1390;-64
2021/03/27 08:30:00;;;;;;;;;;;20.30;53.70;;;;;;5044196;28;1243;-65
2021/03/27 08:32:35;;;;;;;;;;;20.30;54.00;;;;;;5047586;28;1494;-67
2021/03/27 08:35:16;;;;;;;;;;;20.30;53.90;;;;;;5052910;28;1298;-64
2021/03/27 08:37:51;;;;;;;;;;;20.30;53.80;;;;;;5052315;28;1960;-66
2021/03/27 08:40:34;;;;;;;;;;;20.30;53.80;;;;;;5053720;28;1656;-67
2021/03/27 08:43:12;;;;;;;;;;;20.30;53.80;;;;;;5053955;28;1154;-66
2021/03/27 08:45:56;;;;;;;;;;;20.30;54.00;;;;;;5068827;28;1327;-63
2021/03/27 08:48:37;;;;;;;;;;;20.30;54.00;;;;;;5053457;28;1186;-63
2021/03/27 08:51:02;;;;;;;;;;;20.30;54.60;;;;;;5052287;28;1377;-66
2021/03/27 08:53:35;;;;;;;;;;;20.30;54.10;;;;;;5053887;28;1418;-64
2021/03/27 08:56:22;;;;;;;;;;;20.30;54.10;;;;;;5052025;28;1753;-67
2021/03/27 08:58:54;;;;;;;;;;;20.30;54.20;;;;;;5052004;28;1902;-64
2021/03/27 09:01:28;;;;;;;;;;;20.30;54.30;;;;;;5053271;28;1375;-64
2021/03/27 09:04:01;;;;;;;;;;;20.30;54.30;;;;;;5041060;28;1584;-64
2021/03/27 09:06:44;;;;;;;;;;;20.30;54.30;;;;;;5053359;28;1753;-63
2021/03/27 09:09:29;;;;;;;;;;;20.30;54.50;;;;;;5051820;28;1271;-63
2021/03/27 09:11:55;;;;;;;;;;;20.30;54.60;;;;;;5053079;28;1521;-64
2021/03/27 09:14:28;;;;;;;;;;;20.30;54.60;;;;;;5052154;28;1710;-63
2021/03/27 09:16:53;;;;;;;;;;;20.30;54.80;;;;;;5052060;28;1902;-67
2021/03/27 09:19:19;;;;;;;;;;;20.30;54.90;;;;;;5052880;28;1590;-64
2021/03/27 09:21:47;;;;;;;;;;;20.30;54.90;;;;;;5049095;28;1360;-65
2021/03/27 09:24:20;;;;;;;;;;;20.20;55.40;;;;;;5047282;28;1662;-64
2021/03/27 09:27:05;;;;;;;;;;;20.30;54.90;;;;;;5051691;28;1661;-65
2021/03/27 09:29:51;;;;;;;;;;;20.30;54.90;;;;;;5052414;28;1739;-64
2021/03/27 09:32:31;;;;;;;;;;;20.30;55.00;;;;;;5049134;28;1686;-63
2021/03/27 09:35:19;;;;;;;;;;;20.30;55.20;;;;;;5049763;28;1620;-65
2021/03/27 09:37:59;;;;;;;;;;;20.20;55.20;;;;;;5049569;28;1902;-64
2021/03/27 09:40:24;;;;;;;;;;;20.20;55.10;;;;;;5051523;28;1639;-65
2021/03/27 09:43:08;;;;;;;;;;;20.20;54.90;;;;;;5052424;28;1651;-63
2021/03/27 09:45:34;;;;;;;;;;;20.30;55.00;;;;;;5052836;28;1651;-63
2021/03/27 09:48:02;;;;;;;;;;;20.20;55.00;;;;;;5052543;28;1365;-64
2021/03/27 09:50:37;;;;;;;;;;;20.20;55.10;;;;;;5052732;28;1677;-63
2021/03/27 09:53:22;;;;;;;;;;;20.20;55.10;;;;;;5052776;28;1671;-63
2021/03/27 09:55:50;;;;;;;;;;;20.20;55.20;;;;;;5051205;28;1241;-64
2021/03/27 09:58:17;;;;;;;;;;;20.20;55.40;;;;;;5052137;28;1956;-64
2021/03/27 10:01:01;;;;;;;;;;;20.20;55.50;;;;;;5052584;28;1154;-64
2021/03/27 10:03:35;;;;;;;;;;;20.20;55.50;;;;;;5052675;28;1545;-64
2021/03/27 10:06:19;;;;;;;;;;;20.20;55.60;;;;;;5052417;28;1298;-64
2021/03/27 10:08:52;;;;;;;;;;;20.20;55.60;;;;;;5052214;28;1407;-63
2021/03/27 10:11:18;;;;;;;;;;;20.20;55.60;;;;;;5051307;28;1647;-64
2021/03/27 10:14:10;;;;;;;;;;;20.20;55.60;;;;;;5051427;28;1612;-63
2021/03/27 10:16:54;;;;;;;;;;;20.20;55.70;;;;;;5051311;28;1474;-63
2021/03/27 10:19:30;;;;;;;;;;;20.20;55.80;;;;;;5052259;28;1506;-68
2021/03/27 10:21:58;;;;;;;;;;;20.20;55.90;;;;;;5051176;28;1302;-64
2021/03/27 10:24:53;;;;;;;;;;;20.20;55.90;;;;;;5052498;28;1557;-66
2021/03/27 10:27:30;;;;;;;;;;;20.20;55.90;;;;;;5042870;28;1557;-64
2021/03/27 10:30:03;;;;;;;;;;;20.20;56.00;;;;;;5051311;28;1373;-64
2021/03/27 10:32:31;;;;;;;;;;;20.20;55.90;;;;;;5049387;28;1441;-64
2021/03/27 10:35:05;;;;;;;;;;;20.20;55.90;;;;;;5052307;28;1663;-65
2021/03/27 10:37:49;;;;;;;;;;;20.20;55.90;;;;;;5050510;28;1965;-64
2021/03/27 10:40:27;;;;;;;;;;;20.20;56.00;;;;;;5053549;28;1367;-65
2021/03/27 10:43:11;;;;;;;;;;;20.20;56.00;;;;;;5054511;28;1392;-65
2021/03/27 10:45:43;;;;;;;;;;;20.10;55.90;;;;;;5054852;28;1385;-64
2021/03/27 10:48:17;;;;;;;;;;;20.10;56.00;;;;;;5054299;28;1458;-64
2021/03/27 10:51:18;;;;;;;;;;;20.20;56.00;;;;;;5054903;28;1726;-64
2021/03/27 10:54:04;;;;;;;;;;;20.20;56.00;;;;;;5013993;28;1650;-65
2021/03/27 10:56:40;;;;;;;;;;;20.20;56.10;;;;;;5050248;28;1710;-65
2021/03/27 10:59:11;;;;;;;;;;;20.10;56.00;;;;;;5053693;28;1947;-65
2021/03/27 11:01:48;;;;;;;;;;;20.20;56.10;;;;;;5054223;28;1590;-64
2021/03/27 11:04:32;;;;;;;;;;;20.10;56.10;;;;;;5053875;28;1706;-65
2021/03/27 11:07:07;;;;;;;;;;;20.20;56.10;;;;;;5055491;28;1625;-65
2021/03/27 11:09:41;;;;;;;;;;;20.10;56.10;;;;;;5055583;28;1696;-64
2021/03/27 11:12:06;;;;;;;;;;;20.10;56.20;;;;;;5055361;28;1383;-65
2021/03/27 11:14:35;;;;;;;;;;;20.10;56.30;;;;;;5054219;28;1699;-65
2021/03/27 11:17:09;;;;;;;;;;;20.20;56.40;;;;;;5054161;28;1910;-66
2021/03/27 11:19:52;;;;;;;;;;;20.20;56.40;;;;;;5053173;28;1494;-66
2021/03/27 11:22:33;;;;;;;;;;;20.20;56.40;;;;;;5054499;28;1258;-66
2021/03/27 11:25:17;;;;;;;;;;;20.20;56.40;;;;;;5041882;28;1629;-66
2021/03/27 11:28:01;;;;;;;;;;;20.20;56.50;;;;;;5054697;28;1491;-67
2021/03/27 11:30:37;;;;;;;;;;;20.20;56.50;;;;;;5055228;28;1626;-65
2021/03/27 11:33:11;;;;;;;;;;;20.20;56.40;;;;;;5051343;28;1313;-66
2021/03/27 11:35:37;;;;;;;;;;;20.20;56.40;;;;;;5053530;28;1624;-65
2021/03/27 11:38:05;;;;;;;;;;;20.20;56.40;;;;;;5053087;28;1955;-65
2021/03/27 11:40:39;;;;;;;;;;;20.20;56.40;;;;;;5054238;28;1383;-67
2021/03/27 11:43:13;;;;;;;;;;;20.20;56.40;;;;;;5054276;28;1637;-68
2021/03/27 11:45:40;;;;;;;;;;;20.20;56.40;;;;;;5054670;28;1474;-68
2021/03/27 11:48:12;;;;;;;;;;;20.20;56.40;;;;;;5052076;28;1687;-68
2021/03/27 11:50:56;;;;;;;;;;;20.20;56.90;;;;;;5053552;28;1647;-68
2021/03/27 11:53:40;;;;;;;;;;;20.20;56.40;;;;;;5054590;28;1515;-65
2021/03/27 11:56:18;;;;;;;;;;;20.20;56.40;;;;;;5054313;28;1669;-68
2021/03/27 12:02:05;;;;;;;;;;;20.20;56.40;;;;;;5001170;28;1723;-65
2021/03/27 12:04:37;;;;;;;;;;;20.20;56.40;;;;;;5012072;28;1402;-65
2021/03/27 12:07:07;;;;;;;;;;;20.20;56.50;;;;;;5036288;28;1539;-67
2021/03/27 12:09:39;;;;;;;;;;;20.20;56.40;;;;;;5052443;28;1639;-66
2021/03/27 12:12:09;;;;;;;;;;;20.20;56.50;;;;;;5052852;28;1579;-66
2021/03/27 12:14:37;;;;;;;;;;;20.20;56.80;;;;;;5052804;28;1370;-65
2021/03/27 12:17:05;;;;;;;;;;;20.20;56.60;;;;;;5053923;28;1906;-67
2021/03/27 12:19:35;;;;;;;;;;;20.20;56.70;;;;;;5054161;28;1710;-66
2021/03/27 12:22:07;;;;;;;;;;;20.20;56.70;;;;;;5052984;28;1586;-66
2021/03/27 12:24:51;;;;;;;;;;;20.20;56.70;;;;;;5053127;28;1571;-65
2021/03/27 12:27:23;;;;;;;;;;;20.20;56.80;;;;;;5054162;28;2085;-66
2021/03/27 12:30:11;;;;;;;;;;;20.20;56.80;;;;;;5052397;28;1594;-65
2021/03/27 12:32:39;;;;;;;;;;;20.20;56.80;;;;;;5047293;28;1408;-65
2021/03/27 12:35:25;;;;;;;;;;;20.10;56.80;;;;;;5054051;28;1608;-65
2021/03/27 12:38:06;;;;;;;;;;;20.20;56.90;;;;;;5052117;28;1957;-65
2021/03/27 12:40:35;;;;;;;;;;;20.10;56.90;;;;;;5057655;28;1426;-66
2021/03/27 12:43:13;;;;;;;;;;;20.10;56.90;;;;;;5053558;28;1617;-65
2021/03/27 12:45:39;;;;;;;;;;;20.10;56.90;;;;;;5051877;28;1465;-65
2021/03/27 12:48:20;;;;;;;;;;;20.10;56.90;;;;;;5052397;28;1290;-64
2021/03/27 12:50:56;;;;;;;;;;;20.10;57.10;;;;;;5053100;28;1408;-66
2021/03/27 12:53:28;;;;;;;;;;;20.20;57.10;;;;;;5052074;28;1393;-66
2021/03/27 12:56:13;;;;;;;;;;;20.20;56.90;;;;;;5052491;28;1627;-66
2021/03/27 12:58:58;;;;;;;;;;;20.20;56.90;;;;;;5053330;28;1961;-65
2021/03/27 13:01:38;;;;;;;;;;;20.20;57.00;;;;;;5052670;28;1707;-65
2021/03/27 13:04:18;;;;;;;;;;;20.10;57.10;;;;;;5046955;28;2022;-66
2021/03/27 13:06:58;;;;;;;;;;;20.10;55.10;;;;;;5066629;22;3897;-67
2021/03/27 13:09:24;;;;;;;;;;;20.10;51.30;;;;;;5045684;28;2308;-68
2021/03/27 13:11:56;;;;;;;;;;;20.10;50.40;;;;;;5052345;28;1570;-69
2021/03/27 13:14:54;;;;;;;;;;;20.10;50.20;;;;;;5067844;28;1593;-69
2021/03/27 13:17:24;;;;;;;;;;;20.00;50.70;;;;;;5028228;28;1906;-68
2021/03/27 13:20:13;;;;;;;;;;;20.10;50.60;;;;;;5067391;28;1708;-67
2021/03/27 13:22:57;;;;;;;;;;;20.10;49.60;;;;;;5021313;28;1539;-67
2021/03/27 13:25:35;;;;;;;;;;;20.10;49.20;;;;;;5051994;28;1758;-67
2021/03/27 13:28:19;;;;;;;;;;;20.20;48.90;;;;;;5032325;28;1776;-67
2021/03/27 13:30:49;;;;;;;;;;;20.20;48.60;;;;;;5047598;28;1263;-67
2021/03/27 13:33:22;;;;;;;;;;;20.20;48.20;;;;;;5052588;28;1104;-67
2021/03/27 13:35:51;;;;;;;;;;;20.30;48.10;;;;;;5067362;28;1098;-69
2021/03/27 13:38:27;;;;;;;;;;;20.30;47.80;;;;;;5051160;28;1906;-68
2021/03/27 13:40:52;;;;;;;;;;;20.30;47.40;;;;;;5067432;28;1257;-67
2021/03/27 13:43:37;;;;;;;;;;;20.30;47.30;;;;;;5067202;28;1256;-69
2021/03/27 13:46:17;;;;;;;;;;;20.30;47.10;;;;;;5051898;28;1312;-69
2021/03/27 13:48:47;;;;;;;;;;;20.30;46.90;;;;;;5066217;28;1416;-68
2021/03/27 13:51:12;;;;;;;;;;;20.30;46.40;;;;;;5067346;28;1090;-69
2021/03/27 13:53:42;;;;;;;;;;;20.30;46.40;;;;;;5051608;28;1042;-68
2021/03/27 13:56:14;;;;;;;;;;;20.40;46.40;;;;;;5050503;28;1347;-68
2021/03/27 13:58:41;;;;;;;;;;;20.40;46.30;;;;;;5035358;28;1961;-70
2021/03/27 14:01:17;;;;;;;;;;;20.40;46.30;;;;;;5047056;28;1112;-70
2021/03/27 14:03:44;;;;;;;;;;;20.40;46.30;;;;;;5030464;28;1442;-69
2021/03/27 14:06:18;;;;;;;;;;;20.40;46.10;;;;;;5030162;28;1644;-69
2021/03/27 14:09:13;;;;;;;;;;;20.40;45.90;;;;;;5046554;28;1298;-69
2021/03/27 14:11:57;;;;;;;;;;;20.40;45.80;;;;;;5029035;28;1372;-69
2021/03/27 14:14:24;;;;;;;;;;;20.40;45.80;;;;;;5032019;28;1100;-69
2021/03/27 14:17:08;;;;;;;;;;;20.50;45.60;;;;;;5050828;28;1342;-70
2021/03/27 14:19:53;;;;;;;;;;;20.50;45.60;;;;;;5035357;28;1402;-68
2021/03/27 14:22:36;;;;;;;;;;;20.50;45.60;;;;;;5026696;28;1373;-68
2021/03/27 14:25:09;;;;;;;;;;;20.50;45.40;;;;;;5021673;28;1547;-68
2021/03/27 14:27:37;;;;;;;;;;;20.50;45.30;;;;;;5050262;28;1253;-68
2021/03/27 14:30:15;;;;;;;;;;;20.50;45.10;;;;;;5034043;28;1221;-68
2021/03/27 14:32:49;;;;;;;;;;;20.50;45.10;;;;;;5035672;28;1241;-68
2021/03/27 14:35:34;;;;;;;;;;;20.50;44.80;;;;;;5071147;28;1244;-68
2021/03/27 14:38:05;;;;;;;;;;;20.50;44.70;;;;;;5054709;28;1951;-68
2021/03/27 14:40:34;;;;;;;;;;;20.50;44.70;;;;;;5070617;28;1321;-69
2021/03/27 14:43:00;;;;;;;;;;;20.50;44.80;;;;;;5070310;28;1271;-69
2021/03/27 14:45:31;;;;;;;;;;;20.50;44.40;;;;;;5055094;28;1107;-68
2021/03/27 14:48:14;;;;;;;;;;;20.50;44.20;;;;;;5069973;28;1349;-70
2021/03/27 14:50:44;;;;;;;;;;;20.50;44.20;;;;;;5066783;28;1091;-68
2021/03/27 14:53:21;;;;;;;;;;;20.50;44.10;;;;;;5031383;28;1476;-69
2021/03/27 14:55:54;;;;;;;;;;;20.50;43.90;;;;;;5032105;28;1356;-66
2021/03/27 14:58:25;;;;;;;;;;;20.60;43.70;;;;;;5028603;28;1915;-68
2021/03/27 15:00:56;;;;;;;;;;;20.50;43.30;;;;;;5026752;28;1319;-68
2021/03/27 15:03:25;;;;;;;;;;;20.50;43.30;;;;;;5039235;28;1509;-68
2021/03/27 15:05:51;;;;;;;;;;;20.60;43.10;;;;;;5039018;28;1192;-68
2021/03/27 15:08:22;;;;;;;;;;;20.60;43.00;;;;;;5070569;28;1757;-69
2021/03/27 15:11:06;;;;;;;;;;;20.50;42.80;;;;;;5071199;28;1285;-69
2021/03/27 15:13:39;;;;;;;;;;;20.60;42.80;;;;;;5055424;28;1316;-68
2021/03/27 15:16:10;;;;;;;;;;;20.50;42.50;;;;;;5070886;28;1306;-68
2021/03/27 15:18:40;;;;;;;;;;;20.60;42.60;;;;;;5053704;28;1962;-68
2021/03/27 15:21:07;;;;;;;;;;;20.50;42.30;;;;;;5055503;28;1367;-68